Time;durP1;ratioP1;P1;durP2;ratioP2;P2;SDS_P1;SDS_P2;PMS_P1;PMS_P2;Temp;Humidity;BMP_temperature;BMP_pressure;BME280_temperature;BME280_humidity;BME280_pressure;Samples;Min_cycle;Max_cycle;Signal;HPM_P1;HPM_P2
2021/01/26 00:01:23;;;;;;;8.05;2.70;;;;;;;0.45;84.63;100301.78;5094697;28;20020;-75
2021/01/26 00:03:49;;;;;;;5.63;2.22;;;;;;;0.40;85.07;100302.44;5094757;28;20028;-75
2021/01/26 00:06:14;;;;;;;4.90;2.42;;;;;;;0.39;84.29;100308.03;5093236;28;20698;-75
2021/01/26 00:08:39;;;;;;;6.15;2.15;;;;;;;0.35;84.46;100302.28;5095972;28;20024;-76
2021/01/26 00:11:05;;;;;;;3.38;2.15;;;;;;;0.31;84.43;100305.63;5076594;28;20028;-76
2021/01/26 00:13:31;;;;;;;4.88;2.40;;;;;;;0.26;84.57;100308.13;5060349;28;20116;-76
2021/01/26 00:15:57;;;;;;;5.82;2.40;;;;;;;0.22;84.74;100307.75;5092082;28;20020;-75
2021/01/26 00:18:22;;;;;;;4.30;1.70;;;;;;;0.19;84.36;100308.16;5093154;28;20073;-75
2021/01/26 00:20:48;;;;;;;3.53;1.77;;;;;;;0.14;84.22;100322.25;5093537;28;20032;-75
2021/01/26 00:23:14;;;;;;;3.95;1.73;;;;;;;0.07;84.25;100312.59;5095167;28;20024;-76
2021/01/26 00:25:40;;;;;;;3.13;2.05;;;;;;;0.02;84.11;100317.78;5093185;28;20027;-75
2021/01/26 00:28:06;;;;;;;3.35;2.05;;;;;;;-0.04;84.24;100314.91;5095536;28;20099;-75
2021/01/26 00:30:33;;;;;;;5.35;2.13;;;;;;;-0.13;84.14;100316.22;5093513;28;20052;-75
2021/01/26 00:32:59;;;;;;;3.17;1.77;;;;;;;-0.20;84.48;100315.44;5093926;28;20480;-75
2021/01/26 00:35:25;;;;;;;4.75;2.03;;;;;;;-0.23;84.38;100299.78;5094134;28;20066;-75
2021/01/26 00:37:50;;;;;;;5.25;2.42;;;;;;;-0.28;84.38;100315.69;5093683;28;20492;-75
2021/01/26 00:40:16;;;;;;;2.58;2.05;;;;;;;-0.33;84.41;100321.69;5093189;28;20047;-75
2021/01/26 00:42:41;;;;;;;3.38;2.20;;;;;;;-0.36;84.08;100322.09;5076379;28;20105;-75
2021/01/26 00:45:07;;;;;;;3.08;1.80;;;;;;;-0.39;84.19;100319.84;5094075;28;20027;-76
2021/01/26 00:47:33;;;;;;;2.92;2.10;;;;;;;-0.43;84.20;100325.88;5093071;28;20071;-75
2021/01/26 00:49:58;;;;;;;5.55;2.10;;;;;;;-0.48;84.05;100330.00;5094115;28;20035;-75
2021/01/26 00:52:23;;;;;;;2.88;1.80;;;;;;;-0.48;84.01;100324.63;5092900;28;20038;-75
2021/01/26 00:54:49;;;;;;;3.53;1.70;;;;;;;-0.50;84.61;100326.69;5092364;28;20534;-75
2021/01/26 00:57:19;;;;;;;2.33;1.58;;;;;;;-0.51;84.39;100325.06;5093810;28;20027;-75
2021/01/26 00:59:46;;;;;;;4.47;1.70;;;;;;;-0.52;84.03;100328.78;5090022;28;20019;-76
2021/01/26 01:02:11;;;;;;;3.22;1.10;;;;;;;-0.55;84.66;100318.47;5092981;28;20468;-75
2021/01/26 01:04:37;;;;;;;3.28;1.40;;;;;;;-0.58;84.42;100334.97;5089144;28;20023;-75
2021/01/26 01:07:02;;;;;;;1.88;1.35;;;;;;;-0.60;83.92;100336.19;5091586;28;20491;-75
2021/01/26 01:09:28;;;;;;;3.92;1.35;;;;;;;-0.61;84.37;100326.53;5093359;28;20027;-75
2021/01/26 01:11:53;;;;;;;3.85;1.38;;;;;;;-0.63;84.47;100337.44;5093785;28;20035;-76
2021/01/26 01:14:18;;;;;;;3.83;1.23;;;;;;;-0.63;84.49;100334.78;5094615;28;20554;-75
2021/01/26 01:16:45;;;;;;;4.25;1.40;;;;;;;-0.61;84.15;100339.94;5092391;28;20024;-75
2021/01/26 01:19:11;;;;;;;2.03;1.45;;;;;;;-0.62;84.43;100339.09;5091977;28;20377;-75
2021/01/26 01:21:36;;;;;;;2.55;1.35;;;;;;;-0.62;84.53;100336.44;5093203;28;20024;-76
2021/01/26 01:24:01;;;;;;;3.80;1.65;;;;;;;-0.61;84.34;100329.22;5093397;28;20027;-76
2021/01/26 01:26:27;;;;;;;2.92;1.40;;;;;;;-0.60;84.37;100329.03;5092931;28;20027;-76
2021/01/26 01:28:52;;;;;;;2.00;1.60;;;;;;;-0.57;84.25;100335.81;5093205;28;20035;-75
2021/01/26 01:31:17;;;;;;;2.13;1.40;;;;;;;-0.55;84.37;100333.72;5092203;28;20130;-75
2021/01/26 01:33:43;;;;;;;3.75;1.42;;;;;;;-0.55;84.18;100339.88;5092811;28;20035;-75
2021/01/26 01:36:08;;;;;;;2.75;1.50;;;;;;;-0.54;84.33;100336.19;5093121;28;20016;-75
2021/01/26 01:38:34;;;;;;;5.20;2.10;;;;;;;-0.52;84.41;100342.16;5091617;28;20044;-75
2021/01/26 01:40:59;;;;;;;3.25;2.03;;;;;;;-0.51;84.26;100341.13;5071845;28;20028;-75
2021/01/26 01:43:24;;;;;;;3.67;1.50;;;;;;;-0.51;84.16;100346.47;5084241;28;20542;-76
2021/01/26 01:45:50;;;;;;;3.72;1.55;;;;;;;-0.49;84.09;100349.78;5090709;28;20390;-75
2021/01/26 01:48:34;;;;;;;5.72;1.50;;;;;;;-0.49;84.61;100338.25;5092507;28;20035;-75
2021/01/26 01:51:20;;;;;;;3.60;1.50;;;;;;;-0.50;84.53;100344.63;5091957;28;20430;-76
2021/01/26 01:53:52;;;;;;;7.15;1.80;;;;;;;-0.52;84.42;100344.00;5076437;28;20176;-75
2021/01/26 01:56:20;;;;;;;4.93;1.77;;;;;;;-0.53;84.45;100340.50;5071582;28;20029;-75
2021/01/26 01:58:48;;;;;;;2.80;1.50;;;;;;;-0.52;83.98;100347.53;5075432;28;20028;-75
2021/01/26 02:01:15;;;;;;;3.42;1.58;;;;;;;-0.53;84.25;100351.22;5064334;28;20082;-76
2021/01/26 02:03:50;;;;;;;2.55;1.63;;;;;;;-0.52;84.23;100350.19;5082756;28;20024;-75
2021/01/26 02:06:15;;;;;;;7.55;2.17;;;;;;;-0.51;84.71;100346.47;5091713;28;20055;-76
2021/01/26 02:08:54;;;;;;;2.75;1.70;;;;;;;-0.52;84.64;100355.56;5092433;28;20028;-76
2021/01/26 02:11:19;;;;;;;3.10;1.65;;;;;;;-0.52;84.13;100355.56;5058161;28;20492;-76
2021/01/26 02:13:44;;;;;;;2.15;1.70;;;;;;;-0.53;84.21;100361.94;5091408;28;20024;-76
2021/01/26 02:16:10;;;;;;;3.58;1.63;;;;;;;-0.55;84.32;100358.63;5091848;28;20031;-76
2021/01/26 02:18:57;;;;;;;2.83;1.92;;;;;;;-0.58;84.70;100367.09;5066159;28;20081;-76
2021/01/26 02:21:59;;;;;;;3.58;1.98;;;;;;;-0.60;84.25;100369.19;5075175;28;20035;-76
2021/01/26 02:24:28;;;;;;;4.75;1.90;;;;;;;-0.62;84.27;100375.78;5091339;28;20084;-76
2021/01/26 02:27:21;;;;;;;2.72;2.10;;;;;;;-0.59;84.17;100370.81;5091949;28;20024;-76
2021/01/26 02:30:20;;;;;;;3.80;1.73;;;;;;;-0.58;84.50;100375.13;5091257;28;20027;-76
2021/01/26 02:33:06;;;;;;;2.47;1.52;;;;;;;-0.60;84.38;100379.88;5081036;28;20101;-76
2021/01/26 02:36:23;;;;;;;2.40;1.63;;;;;;;-0.64;84.22;100383.19;5091474;28;20028;-76
2021/01/26 02:39:18;;;;;;;3.38;1.58;;;;;;;-0.66;84.30;100378.03;5028944;28;20055;-76
2021/01/26 02:42:07;;;;;;;2.30;1.65;;;;;;;-0.62;83.98;100386.47;5092356;28;20494;-76
2021/01/26 02:44:45;;;;;;;2.20;1.15;;;;;;;-0.60;84.28;100385.25;5036810;28;20501;-76
2021/01/26 02:47:18;;;;;;;3.33;1.40;;;;;;;-0.60;84.06;100398.63;5075458;28;20488;-76
2021/01/26 02:50:02;;;;;;;3.28;1.55;;;;;;;-0.62;84.23;100395.31;5090789;28;20384;-76
2021/01/26 02:52:31;;;;;;;1.45;1.20;;;;;;;-0.63;84.12;100400.88;5091231;28;20020;-76
2021/01/26 02:55:08;;;;;;;2.60;1.17;;;;;;;-0.65;84.29;100409.13;5074656;28;20051;-76
2021/01/26 02:57:49;;;;;;;1.30;1.15;;;;;;;-0.68;84.23;100407.69;5090938;28;20028;-76
2021/01/26 03:00:17;;;;;;;1.27;1.17;;;;;;;-0.68;83.80;100414.91;5065707;28;20388;-76
2021/01/26 03:03:08;;;;;;;1.58;1.00;;;;;;;-0.69;84.17;100405.22;5087708;28;20028;-77
2021/01/26 03:05:36;;;;;;;1.60;1.20;;;;;;;-0.71;84.15;100405.44;5092480;28;20525;-75
2021/01/26 03:08:05;;;;;;;1.80;1.00;;;;;;;-0.72;84.09;100409.13;5091644;28;20044;-75
2021/01/26 03:10:38;;;;;;;5.25;1.42;;;;;;;-0.70;84.23;100409.75;5091203;28;20019;-75
2021/01/26 03:13:06;;;;;;;2.83;1.00;;;;;;;-0.66;84.23;100407.47;5089965;28;20102;-76
2021/01/26 03:15:56;;;;;;;3.85;1.58;;;;;;;-0.66;84.26;100407.47;5072212;28;20038;-75
2021/01/26 03:18:24;;;;;;;4.70;1.48;;;;;;;-0.64;84.41;100405.41;5091121;28;20039;-76
2021/01/26 03:20:54;;;;;;;2.78;1.20;;;;;;;-0.65;84.37;100414.50;5091481;28;20032;-76
2021/01/26 03:23:31;;;;;;;1.88;1.17;;;;;;;-0.68;84.16;100418.41;5072252;28;20040;-76
2021/01/26 03:25:56;;;;;;;4.93;1.48;;;;;;;-0.69;84.41;100418.59;5090926;28;20047;-76
2021/01/26 03:28:23;;;;;;;1.63;1.27;;;;;;;-0.68;84.22;100420.28;5090220;28;20047;-75
2021/01/26 03:30:49;;;;;;;2.67;1.25;;;;;;;-0.68;84.27;100417.59;5071917;28;20024;-75
2021/01/26 03:33:21;;;;;;;2.20;1.20;;;;;;;-0.66;84.28;100423.53;5056864;28;20024;-76
2021/01/26 03:35:46;;;;;;;2.42;1.50;;;;;;;-0.63;84.41;100423.09;5074172;28;20040;-75
2021/01/26 03:38:23;;;;;;;2.00;1.55;;;;;;;-0.62;84.15;100424.78;5089830;28;20552;-75
2021/01/26 03:40:50;;;;;;;2.35;1.40;;;;;;;-0.63;84.37;100427.66;5090339;28;20554;-75
2021/01/26 03:43:15;;;;;;;2.70;1.20;;;;;;;-0.69;84.15;100434.66;5090024;28;20020;-75
2021/01/26 03:45:41;;;;;;;1.98;1.35;;;;;;;-0.73;84.18;100438.81;5087021;28;20502;-74
2021/01/26 03:48:50;;;;;;;3.20;1.45;;;;;;;-0.76;83.97;100433.88;5070246;28;20077;-74
2021/01/26 03:51:24;;;;;;;2.47;1.65;;;;;;;-0.77;84.34;100449.06;5010988;28;20490;-75
2021/01/26 03:54:03;;;;;;;2.30;1.80;;;;;;;-0.79;83.99;100450.31;5017793;28;20140;-76
2021/01/26 03:56:53;;;;;;;1.65;1.35;;;;;;;-0.84;83.95;100452.81;5068224;28;20047;-76
2021/01/26 03:59:55;;;;;;;2.15;1.60;;;;;;;-0.94;84.08;100454.03;5091977;28;20030;-75
2021/01/26 04:02:26;;;;;;;;;;;;;;;-1.03;83.97;100455.28;5090493;28;20046;-75
2021/01/26 04:05:16;;;;;;;2.08;1.63;;;;;;;-1.13;84.03;100452.19;5090249;28;19935;-75
2021/01/26 04:07:48;;;;;;;3.25;1.40;;;;;;;-1.24;83.67;100456.28;5072030;28;20108;-74
2021/01/26 04:10:16;;;;;;;;;;;;;;;-1.29;83.94;100456.06;5092587;28;20043;-75
2021/01/26 04:12:42;;;;;;;1.80;1.42;;;;;;;-1.32;83.86;100455.66;5089965;28;19916;-74
2021/01/26 04:15:13;;;;;;;1.85;1.30;;;;;;;-1.38;83.82;100458.13;5088835;28;20024;-75
2021/01/26 04:17:40;;;;;;;2.10;1.10;;;;;;;-1.38;84.00;100454.63;5088438;28;20035;-76
2021/01/26 04:20:08;;;;;;;1.95;1.45;;;;;;;-1.37;84.25;100465.09;5073467;28;20384;-75
2021/01/26 04:22:33;;;;;;;3.10;1.25;;;;;;;-1.33;84.38;100456.72;5072988;28;20044;-75
2021/01/26 04:24:59;;;;;;;1.88;1.40;;;;;;;-1.38;83.99;100463.47;5073261;28;20031;-74
2021/01/26 04:27:24;;;;;;;1.83;1.42;;;;;;;-1.38;84.16;100468.81;5090952;28;20031;-75
2021/01/26 04:29:50;;;;;;;2.33;1.60;;;;;;;-1.39;83.90;100464.50;5071695;28;20040;-75
2021/01/26 04:32:16;;;;;;;1.77;1.33;;;;;;;-1.42;83.97;100458.72;5071800;28;20024;-75
2021/01/26 04:34:42;;;;;;;1.63;1.17;;;;;;;-1.48;84.02;100460.34;5072660;28;20024;-75
2021/01/26 04:37:07;;;;;;;1.95;1.35;;;;;;;-1.55;84.18;100456.88;5087625;28;20019;-75
2021/01/26 04:39:33;;;;;;;2.35;1.52;;;;;;;-1.59;84.38;100461.78;5090917;28;20044;-75
2021/01/26 04:42:31;;;;;;;1.75;1.20;;;;;;;-1.67;83.97;100469.16;5093755;28;20477;-75
2021/01/26 04:44:58;;;;;;;1.85;1.27;;;;;;;-1.73;84.01;100461.94;5060145;28;20082;-75
2021/01/26 04:47:36;;;;;;;1.73;1.13;;;;;;;-1.79;84.48;100464.41;5092840;28;20138;-75
2021/01/26 04:50:19;;;;;;;1.58;1.08;;;;;;;-1.85;84.27;100467.88;5094146;28;20028;-75
2021/01/26 04:52:47;;;;;;;;;;;;;;;-1.89;84.22;100465.78;5091518;28;20035;-75
2021/01/26 04:55:21;;;;;;;1.98;1.50;;;;;;;-1.93;84.07;100478.75;5093485;28;19911;-75
2021/01/26 04:58:18;;;;;;;1.45;1.10;;;;;;;-1.91;84.44;100482.03;5090811;28;20063;-75
2021/01/26 05:01:05;;;;;;;1.45;1.17;;;;;;;-1.88;84.34;100478.97;5093879;28;20048;-75
2021/01/26 05:03:31;;;;;;;1.70;1.38;;;;;;;-1.85;84.50;100477.75;5082642;28;20491;-74
2021/01/26 05:06:06;;;;;;;1.50;1.40;;;;;;;-1.88;84.25;100470.13;5094778;28;20120;-75
2021/01/26 05:08:37;;;;;;;2.58;1.38;;;;;;;-1.92;84.22;100476.88;5092611;28;20043;-75
2021/01/26 05:11:14;;;;;;;1.75;1.13;;;;;;;-1.97;84.45;100479.31;5093437;28;20107;-75
2021/01/26 05:14:03;;;;;;;1.75;1.30;;;;;;;-2.04;84.26;100484.66;5074850;28;20418;-75
2021/01/26 05:16:30;;;;;;;4.57;1.70;;;;;;;-2.09;84.53;100485.25;5090832;28;20032;-75
2021/01/26 05:19:07;;;;;;;2.42;1.35;;;;;;;-2.15;84.38;100487.88;5092694;28;20028;-75
2021/01/26 05:21:35;;;;;;;2.88;1.50;;;;;;;-2.19;84.62;100486.63;5093473;28;20023;-75
2021/01/26 05:24:05;;;;;;;2.45;1.20;;;;;;;-2.25;84.57;100493.56;5091782;28;20035;-75
2021/01/26 05:26:30;;;;;;;3.42;1.25;;;;;;;-2.28;84.40;100488.63;5075843;28;20020;-75
2021/01/26 05:28:56;;;;;;;1.63;1.40;;;;;;;-2.31;84.52;100492.53;5092231;28;20024;-75
2021/01/26 05:31:26;;;;;;;2.35;1.05;;;;;;;-2.34;84.39;100489.44;5076979;28;20024;-75
2021/01/26 05:34:03;;;;;;;1.92;1.10;;;;;;;-2.38;84.43;100494.31;5080387;28;20031;-75
2021/01/26 05:36:28;;;;;;;1.80;1.30;;;;;;;-2.40;84.40;100496.38;5076149;28;20024;-75
2021/01/26 05:38:53;;;;;;;3.08;1.60;;;;;;;-2.43;84.86;100496.75;5090755;28;20043;-76
2021/01/26 05:41:19;;;;;;;1.38;1.27;;;;;;;-2.44;84.72;100492.44;5093175;28;20456;-75
2021/01/26 05:43:44;;;;;;;2.42;1.45;;;;;;;-2.47;84.58;100495.50;5091203;28;20077;-75
2021/01/26 05:46:10;;;;;;;3.22;1.40;;;;;;;-2.48;84.49;100493.88;5091672;28;20028;-75
2021/01/26 05:48:49;;;;;;;3.22;1.35;;;;;;;-2.50;84.87;100490.56;5069606;28;20072;-75
2021/01/26 05:51:17;;;;;;;1.98;1.40;;;;;;;-2.51;84.75;100494.22;5092468;28;20045;-74
2021/01/26 05:53:42;;;;;;;3.33;1.40;;;;;;;-2.53;84.82;100502.44;5075195;28;20073;-76
2021/01/26 05:56:13;;;;;;;1.55;1.15;;;;;;;-2.53;84.82;100504.28;5093275;28;20024;-75
2021/01/26 05:58:40;;;;;;;1.77;1.30;;;;;;;-2.54;84.88;100502.63;5074394;28;20028;-75
2021/01/26 06:01:07;;;;;;;2.95;1.30;;;;;;;-2.55;84.61;100501.00;5075603;28;20130;-75
2021/01/26 06:03:33;;;;;;;1.60;1.35;;;;;;;-2.55;84.76;100509.00;5068906;28;20040;-75
2021/01/26 06:06:14;;;;;;;3.55;1.50;;;;;;;-2.57;84.59;100505.69;5090766;28;20024;-75
2021/01/26 06:08:51;;;;;;;1.73;1.23;;;;;;;-2.58;84.99;100498.72;5076797;28;20229;-77
2021/01/26 06:11:20;;;;;;;2.83;1.20;;;;;;;-2.60;84.84;100509.56;5076293;28;20031;-76
2021/01/26 06:13:45;;;;;;;2.38;1.27;;;;;;;-2.61;84.83;100515.13;5092606;28;20032;-76
2021/01/26 06:16:20;;;;;;;3.22;1.77;;;;;;;-2.63;85.16;100506.47;5092612;28;20050;-76
2021/01/26 06:18:57;;;;;;;3.13;1.48;;;;;;;-2.63;84.91;100517.16;5090997;28;20465;-76
2021/01/26 06:21:22;;;;;;;2.17;1.23;;;;;;;-2.63;84.91;100519.81;5058376;28;20487;-77
2021/01/26 06:23:48;;;;;;;2.30;0.98;;;;;;;-2.62;85.12;100521.44;5086595;28;20028;-76
2021/01/26 06:26:13;;;;;;;2.97;0.82;;;;;;;-2.63;85.19;100533.16;5093363;28;20393;-76
2021/01/26 06:28:57;;;;;;;1.17;0.98;;;;;;;-2.63;84.74;100522.47;5091451;28;20020;-76
2021/01/26 06:31:31;;;;;;;2.50;0.90;;;;;;;-2.64;85.21;100526.19;5093766;28;20047;-76
2021/01/26 06:34:21;;;;;;;1.40;1.05;;;;;;;-2.64;84.88;100534.19;5091127;28;20020;-77
2021/01/26 06:37:17;;;;;;;1.30;0.77;;;;;;;-2.67;85.25;100535.41;5085096;28;20042;-74
2021/01/26 06:40:01;;;;;;;1.58;0.95;;;;;;;-2.71;85.13;100532.25;5081932;28;20044;-76
2021/01/26 06:42:43;;;;;;;1.63;0.90;;;;;;;-2.74;85.24;100535.31;5090210;28;20047;-77
2021/01/26 06:45:13;;;;;;;;;;;;;;;-2.74;85.08;100538.00;5091822;28;20016;-76
2021/01/26 06:48:07;;;;;;;1.25;0.70;;;;;;;-2.75;85.01;100547.03;5083625;28;19930;-76
2021/01/26 06:50:55;;;;;;;1.55;0.80;;;;;;;-2.76;84.71;100548.03;5089932;28;20598;-77
2021/01/26 06:53:46;;;;;;;2.20;1.13;;;;;;;-2.80;85.07;100553.97;5080148;28;20039;-76
2021/01/26 06:56:21;;;;;;;2.58;1.00;;;;;;;-2.83;85.17;100555.16;5087664;28;20027;-74
2021/01/26 06:59:20;;;;;;;1.92;1.05;;;;;;;-2.84;84.86;100556.16;5081977;28;20159;-76
2021/01/26 07:02:10;;;;;;;1.15;0.75;;;;;;;-2.84;84.86;100561.50;5088635;28;20460;-76
2021/01/26 07:04:53;;;;;;;1.65;1.10;;;;;;;-2.84;85.07;100572.16;5090960;28;20450;-74
2021/01/26 07:07:18;;;;;;;2.83;1.10;;;;;;;-2.85;85.00;100577.72;5092824;28;20172;-77
2021/01/26 07:09:56;;;;;;;1.52;0.98;;;;;;;-2.87;85.23;100580.56;5089243;28;20398;-75
2021/01/26 07:12:42;;;;;;;4.03;1.00;;;;;;;-2.89;84.92;100582.59;5090986;28;20135;-74
2021/01/26 07:15:31;;;;;;;1.30;0.90;;;;;;;-2.90;85.08;100586.28;5085760;28;20780;-75
2021/01/26 07:18:24;;;;;;;2.25;1.20;;;;;;;-2.90;85.10;100591.59;5085848;28;20078;-75
2021/01/26 07:21:15;;;;;;;;;;;;;;;-2.90;85.22;100597.75;5084363;28;20036;-76
2021/01/26 07:23:59;;;;;;;1.88;1.30;;;;;;;-2.91;84.62;100597.97;5057038;28;20013;-76
2021/01/26 07:26:43;;;;;;;1.70;1.00;;;;;;;-2.93;84.92;100597.31;5087923;28;20028;-75
2021/01/26 07:29:21;;;;;;;3.88;1.50;;;;;;;-2.94;85.23;100603.69;5091849;28;20526;-76
2021/01/26 07:31:57;;;;;;;2.08;1.50;;;;;;;-2.94;85.37;100601.03;5091641;28;20031;-76
2021/01/26 07:34:53;;;;;;;3.42;1.98;;;;;;;-2.95;84.83;100615.34;5084443;28;20071;-76
2021/01/26 07:37:21;;;;;;;3.35;1.70;;;;;;;-2.96;84.88;100611.88;5072407;28;20054;-76
2021/01/26 07:39:55;;;;;;;2.05;1.65;;;;;;;-2.96;85.18;100619.88;5071811;28;20078;-76
2021/01/26 07:42:23;;;;;;;2.00;1.25;;;;;;;-2.94;85.30;100611.69;5089641;28;20035;-76
2021/01/26 07:45:07;;;;;;;3.10;1.58;;;;;;;-2.93;85.01;100621.34;5086365;28;20471;-76
2021/01/26 07:47:36;;;;;;;1.65;1.08;;;;;;;-2.93;85.15;100614.16;5088473;28;20043;-75
2021/01/26 07:50:23;;;;;;;1.90;1.30;;;;;;;-2.93;84.96;100618.66;5069939;28;20109;-74
2021/01/26 07:52:49;;;;;;;3.88;1.17;;;;;;;-2.92;85.42;100620.31;5085442;28;20035;-74
2021/01/26 07:55:34;;;;;;;1.55;1.20;;;;;;;-2.90;85.20;100618.28;5079171;28;20027;-75
2021/01/26 07:58:05;;;;;;;3.70;1.98;;;;;;;-2.92;85.23;100621.16;5072224;28;20028;-75
2021/01/26 08:00:33;;;;;;;2.08;1.40;;;;;;;-2.92;85.01;100625.63;5073510;28;20024;-75
2021/01/26 08:02:58;;;;;;;1.98;1.30;;;;;;;-2.92;85.15;100620.31;5072870;28;20106;-74
2021/01/26 08:05:42;;;;;;;2.35;1.20;;;;;;;-2.94;85.39;100625.84;5085926;28;20392;-73
2021/01/26 08:08:09;;;;;;;1.55;0.95;;;;;;;-2.93;85.08;100626.66;5073685;28;20020;-73
2021/01/26 08:10:34;;;;;;;1.42;1.00;;;;;;;-2.93;84.95;100634.66;5072087;28;20027;-73
2021/01/26 08:13:00;;;;;;;2.42;1.05;;;;;;;-2.93;84.78;100629.34;5090694;28;20028;-73
2021/01/26 08:15:35;;;;;;;2.45;1.15;;;;;;;-2.93;85.61;100630.16;5073204;28;20028;-72
2021/01/26 08:18:19;;;;;;;1.77;0.93;;;;;;;-2.92;84.97;100628.31;5095661;28;20040;-73
2021/01/26 08:20:44;;;;;;;2.00;0.93;;;;;;;-2.91;85.03;100629.97;5091351;28;20028;-72
2021/01/26 08:23:10;;;;;;;2.88;1.23;;;;;;;-2.91;85.29;100630.81;5094291;28;20027;-72
2021/01/26 08:25:40;;;;;;;1.75;0.93;;;;;;;-2.89;85.52;100635.97;5071750;28;20469;-74
2021/01/26 08:28:06;;;;;;;2.05;1.08;;;;;;;-2.88;85.12;100637.59;5059293;28;20533;-73
2021/01/26 08:30:50;;;;;;;2.58;1.23;;;;;;;-2.87;85.18;100641.91;5081360;28;20103;-73
2021/01/26 08:33:16;;;;;;;1.50;1.02;;;;;;;-2.86;85.55;100635.56;5086920;28;20067;-73
2021/01/26 08:35:47;;;;;;;3.08;1.40;;;;;;;-2.84;85.53;100638.84;5092930;28;20052;-74
2021/01/26 08:38:50;;;;;;;1.30;1.00;;;;;;;-2.82;85.10;100642.16;5094701;28;20101;-73
2021/01/26 08:41:36;;;;;;;1.55;1.02;;;;;;;-2.82;85.23;100638.69;5084404;28;20489;-73
2021/01/26 08:44:03;;;;;;;1.70;1.00;;;;;;;-2.81;85.55;100643.84;5088090;28;20481;-73
2021/01/26 08:46:31;;;;;;;3.47;1.77;;;;;;;-2.79;85.10;100641.78;5084962;28;20020;-73
2021/01/26 08:49:03;;;;;;;3.58;1.90;;;;;;;-2.76;85.07;100636.06;5086802;28;20036;-72
2021/01/26 08:51:29;;;;;;;1.50;1.00;;;;;;;-2.74;85.68;100643.91;5074500;28;20039;-73
2021/01/26 08:53:55;;;;;;;2.38;1.50;;;;;;;-2.72;85.44;100648.03;5092025;28;20016;-73
2021/01/26 08:56:23;;;;;;;4.53;1.38;;;;;;;-2.71;85.34;100649.66;5091402;28;20500;-73
2021/01/26 08:58:51;;;;;;;1.60;1.00;;;;;;;-2.69;84.96;100655.66;5094901;28;20024;-72
2021/01/26 09:01:22;;;;;;;1.95;1.40;;;;;;;-2.67;84.91;100652.81;5072813;28;20023;-73
2021/01/26 09:03:50;;;;;;;1.30;1.00;;;;;;;-2.66;84.94;100649.09;5094607;28;20042;-73
2021/01/26 09:06:37;;;;;;;1.08;0.82;;;;;;;-2.63;85.29;100646.06;5076176;28;20028;-73
2021/01/26 09:09:03;;;;;;;2.30;0.90;;;;;;;-2.61;84.83;100651.22;5094980;28;20028;-73
2021/01/26 09:11:36;;;;;;;2.90;1.05;;;;;;;-2.62;84.86;100650.41;5090959;28;20084;-73
2021/01/26 09:14:11;;;;;;;1.77;1.10;;;;;;;-2.60;85.35;100655.53;5092587;28;20027;-72
2021/01/26 09:16:36;;;;;;;3.35;2.13;;;;;;;-2.60;85.40;100655.53;5092131;28;20016;-73
2021/01/26 09:19:18;;;;;;;2.25;1.30;;;;;;;-2.56;84.78;100656.81;5076642;28;20020;-74
2021/01/26 09:21:44;;;;;;;;;;;;;;;-2.54;85.06;100644.06;5084547;28;20049;-74
2021/01/26 09:24:10;;;;;;;3.40;3.10;;;;;;;-2.54;85.24;100654.75;5092887;28;20276;-73
2021/01/26 09:26:35;;;;;;;5.93;3.90;;;;;;;-2.52;85.12;100652.72;5091748;28;20036;-74
2021/01/26 09:29:01;;;;;;;3.22;1.83;;;;;;;-2.52;84.75;100655.41;5089493;28;20019;-74
2021/01/26 09:31:27;;;;;;;1.77;1.05;;;;;;;-2.53;84.87;100656.44;5080020;28;20020;-74
2021/01/26 09:34:06;;;;;;;2.17;1.45;;;;;;;-2.53;85.25;100659.09;5092143;28;20382;-74
2021/01/26 09:36:34;;;;;;;1.42;1.15;;;;;;;-2.53;85.25;100651.09;5091243;28;20024;-74
2021/01/26 09:39:07;;;;;;;2.53;1.23;;;;;;;-2.53;84.75;100656.44;5093108;28;20132;-74
2021/01/26 09:41:33;;;;;;;3.25;2.22;;;;;;;-2.51;85.01;100665.91;5074952;28;20048;-74
2021/01/26 09:44:07;;;;;;;2.50;1.20;;;;;;;-2.49;85.28;100660.34;5076372;28;20056;-73
2021/01/26 09:46:40;;;;;;;1.30;0.88;;;;;;;-2.48;85.14;100665.50;5074330;28;20481;-73
2021/01/26 09:49:18;;;;;;;1.70;1.05;;;;;;;-2.46;84.78;100673.31;5071575;28;20032;-74
2021/01/26 09:51:52;;;;;;;3.97;1.50;;;;;;;-2.44;84.56;100668.63;5091700;28;20030;-73
2021/01/26 09:54:22;;;;;;;4.40;1.75;;;;;;;-2.40;84.76;100667.22;5087752;28;20245;-74
2021/01/26 09:56:47;;;;;;;1.50;1.10;;;;;;;-2.36;85.21;100683.69;5075340;28;20040;-73
2021/01/26 09:59:13;;;;;;;2.05;1.17;;;;;;;-2.37;84.77;100682.84;5092013;28;20032;-73
2021/01/26 10:01:42;;;;;;;4.25;1.10;;;;;;;-2.34;84.69;100681.66;5072584;28;20016;-73
2021/01/26 10:04:07;;;;;;;1.67;0.98;;;;;;;-2.33;85.05;100681.44;5091088;28;20028;-73
2021/01/26 10:06:36;;;;;;;4.03;1.30;;;;;;;-2.32;85.07;100680.44;5073540;28;20388;-73
2021/01/26 10:09:24;;;;;;;2.55;1.20;;;;;;;-2.29;84.70;100680.06;5085942;28;20404;-74
2021/01/26 10:11:50;;;;;;;4.22;1.17;;;;;;;-2.28;84.65;100675.53;5084438;28;20028;-74
2021/01/26 10:14:24;;;;;;;4.30;1.40;;;;;;;-2.27;84.52;100685.19;5075034;28;20031;-74
2021/01/26 10:16:56;;;;;;;2.85;1.45;;;;;;;-2.24;84.98;100682.13;5090485;28;20031;-75
2021/01/26 10:19:29;;;;;;;2.75;1.33;;;;;;;-2.20;84.65;100678.06;5089759;28;20473;-75
2021/01/26 10:22:03;;;;;;;2.45;1.30;;;;;;;-2.16;84.58;100684.66;5073201;28;20089;-76
2021/01/26 10:24:30;;;;;;;4.75;1.30;;;;;;;-2.13;84.44;100684.31;5086921;28;20408;-77
2021/01/26 10:27:18;;;;;;;2.17;1.50;;;;;;;-2.11;84.62;100698.28;5081733;28;20024;-76
2021/01/26 10:29:44;;;;;;;3.35;1.42;;;;;;;-2.07;84.34;100701.41;5086845;28;20028;-75
2021/01/26 10:32:11;;;;;;;2.97;1.48;;;;;;;-2.05;84.64;100686.00;5091317;28;20035;-76
2021/01/26 10:34:44;;;;;;;3.03;1.13;;;;;;;-2.02;84.21;100698.94;5093472;28;20031;-76
2021/01/26 10:37:21;;;;;;;2.65;1.25;;;;;;;-2.01;84.24;100693.44;5090902;28;20016;-76
2021/01/26 10:39:47;;;;;;;3.60;0.90;;;;;;;-1.99;83.81;100690.56;5091628;28;20047;-75
2021/01/26 10:42:17;;;;;;;3.05;1.63;;;;;;;-1.96;84.12;100695.53;5072436;28;20025;-76
2021/01/26 10:44:50;;;;;;;2.88;1.35;;;;;;;-1.91;83.77;100693.09;5092422;28;20469;-76
2021/01/26 10:47:17;;;;;;;5.22;1.90;;;;;;;-1.87;84.02;100694.34;5091329;28;20080;-75
2021/01/26 10:49:43;;;;;;;2.35;1.08;;;;;;;-1.83;83.86;100692.97;5093650;28;20020;-75
2021/01/26 10:52:08;;;;;;;1.95;1.15;;;;;;;-1.82;83.30;100691.09;5091492;28;20039;-76
2021/01/26 10:54:34;;;;;;;3.35;1.30;;;;;;;-1.81;83.34;100696.25;5075198;28;20164;-76
2021/01/26 10:56:59;;;;;;;2.15;1.40;;;;;;;-1.76;83.58;100695.66;5090909;28;20024;-75
2021/01/26 10:59:25;;;;;;;1.65;1.00;;;;;;;-1.74;83.24;100687.47;5092455;28;20036;-76
2021/01/26 11:01:50;;;;;;;2.67;1.23;;;;;;;-1.73;83.31;100695.28;5090765;28;20035;-75
2021/01/26 11:04:17;;;;;;;3.30;1.38;;;;;;;-1.68;82.95;100697.38;5092663;28;20019;-76
2021/01/26 11:06:42;;;;;;;3.20;1.25;;;;;;;-1.66;82.78;100698.81;5073413;28;20055;-76
2021/01/26 11:09:08;;;;;;;3.92;1.52;;;;;;;-1.65;83.04;100696.97;5089612;28;20469;-76
2021/01/26 11:11:34;;;;;;;4.50;1.65;;;;;;;-1.62;82.76;100697.41;5084221;28;20028;-77
2021/01/26 11:14:00;;;;;;;2.40;1.38;;;;;;;-1.59;82.67;100693.50;5072216;28;20028;-77
2021/01/26 11:16:26;;;;;;;3.55;1.50;;;;;;;-1.55;82.85;100689.44;5088497;28;20038;-77
2021/01/26 11:18:52;;;;;;;3.17;1.92;;;;;;;-1.51;82.66;100693.34;5090322;28;20028;-77
2021/01/26 11:21:18;;;;;;;4.90;1.80;;;;;;;-1.47;82.64;100705.31;5090893;28;20035;-76
2021/01/26 11:23:43;;;;;;;4.85;1.67;;;;;;;-1.42;82.53;100697.53;5085788;28;20091;-77
2021/01/26 11:26:11;;;;;;;2.17;1.60;;;;;;;-1.38;82.54;100703.31;5090550;28;20030;-77
2021/01/26 11:28:37;;;;;;;3.85;1.65;;;;;;;-1.34;82.73;100693.84;5090867;28;20434;-76
2021/01/26 11:31:02;;;;;;;4.10;1.40;;;;;;;-1.28;82.72;100698.44;5092766;28;20051;-77
2021/01/26 11:33:28;;;;;;;2.50;1.80;;;;;;;-1.23;82.21;100703.16;5070169;28;20377;-76
2021/01/26 11:35:53;;;;;;;3.67;1.60;;;;;;;-1.17;82.32;100710.41;5084624;28;20081;-76
2021/01/26 11:38:19;;;;;;;2.92;1.40;;;;;;;-1.12;82.24;100714.16;5069141;28;20389;-76
2021/01/26 11:40:44;;;;;;;3.30;1.70;;;;;;;-1.04;82.07;100704.28;5090646;28;20403;-76
2021/01/26 11:43:10;;;;;;;6.03;1.70;;;;;;;-0.95;82.32;100703.94;5066282;28;20028;-76
2021/01/26 11:45:36;;;;;;;5.75;1.80;;;;;;;-0.86;81.89;100703.75;5088864;28;20548;-76
2021/01/26 11:48:02;;;;;;;3.13;1.92;;;;;;;-0.81;81.80;100706.66;5089388;28;20020;-76
2021/01/26 11:50:28;;;;;;;3.75;1.55;;;;;;;-0.73;81.82;100707.28;5071334;28;20046;-76